CA-0455 weather

Brisbane
Ontario, Canada

Public forecast

Using degrees Celsius for public forecast. Weather courtesy of forecast.io.

METAR (pilot weather report)

Closest report is Lester B. Pearson International Airport, 20.0 nm (37.1 km) E. Retrieved 2019/05/19 17:00 UTC (51 minutes ago):

CYYZ 191700Z 15011G20KT 15SM FEW060 BKN260 17/10 A2980 RMK SC1CI6 SLP093 DENSITY ALT 1100FT

TAF (pilot weather forecast)

Closest forecast is Lester B. Pearson International Airport, 20.0 nm (37.1 km) E. Retrieved 2019/05/19 15:42 UTC (2 hours ago):

TAF TAF CYYZ 191439Z 1915/2018 14007G17KT P6SM FEW070 SCT110 TEMPO 1915/1918 P6SM -SHRA VCTS BKN060CB FM192200 18012KT P6SM -SHRA BKN060 TEMPO 1922/2004 5SM -SHRA BR PROB30 1922/2004 VRB20G30KT 11/2SM +TSRA BR BKN020 OVC050CB FM200400 22015G25KT P6SM -SHRA BKN040 FM200900 25012KT P6SM BKN020 BECMG 2010/2012 25015G25KT FM201500 25018G28KT P6SM BKN025 RMK NXT FCST BY 191800Z